Time;durP1;ratioP1;P1;durP2;ratioP2;P2;SDS_P1;SDS_P2;PMS_P1;PMS_P2;Temp;Humidity;BMP_temperature;BMP_pressure;BME280_temperature;BME280_humidity;BME280_pressure;Samples;Min_cycle;Max_cycle;Signal;HPM_P1;HPM_P2
2024/01/20 00:02:25;;;;;;;;;;;;;;;18.42;64.56;100886.94;7393746;19;1281;-37
2024/01/20 00:04:53;;;;;;;;;;;;;;;18.48;64.54;100894.44;7392753;19;1929;-37
2024/01/20 00:07:21;;;;;;;;;;;;;;;18.29;64.90;100889.75;7392661;19;1916;-37
2024/01/20 00:09:50;;;;;;;;;;;;;;;18.08;65.36;100899.56;7392884;19;1566;-38
2024/01/20 00:12:18;;;;;;;;;;;;;;;17.95;65.81;100893.53;7392817;19;1258;-37
2024/01/20 00:14:46;;;;;;;;;;;;;;;17.86;65.83;100887.94;7392874;19;1520;-37
2024/01/20 00:17:17;;;;;;;;;;;;;;;17.72;66.09;100887.34;7390739;19;1841;-37
2024/01/20 00:19:46;;;;;;;;;;;;;;;17.66;66.30;100900.22;7391073;19;1309;-37
2024/01/20 00:22:14;;;;;;;;;;;;;;;17.64;66.33;100914.69;7391908;19;1591;-38
2024/01/20 00:24:42;;;;;;;;;;;;;;;17.53;66.50;100920.91;7393394;19;1109;-37
2024/01/20 00:27:11;;;;;;;;;;;;;;;17.49;66.64;100943.53;7393468;19;1105;-37
2024/01/20 00:29:39;;;;;;;;;;;;;;;17.42;66.50;100964.53;7392481;19;1821;-37
2024/01/20 00:32:07;;;;;;;;;;;;;;;17.41;67.17;100973.53;7391847;19;1544;-37
2024/01/20 00:34:38;;;;;;;;;;;;;;;17.64;66.51;100969.03;7392169;19;1820;-38
2024/01/20 00:37:07;;;;;;;;;;;;;;;18.05;65.63;100972.09;7374979;19;1844;-37
2024/01/20 00:39:35;;;;;;;;;;;;;;;18.25;64.91;100944.53;7393024;19;1133;-37
2024/01/20 00:42:03;;;;;;;;;;;;;;;18.37;64.39;100955.22;7391001;19;1512;-46
2024/01/20 00:44:31;;;;;;;;;;;;;;;18.43;64.16;100968.94;7391801;19;1404;-38
2024/01/20 00:47:00;;;;;;;;;;;;;;;18.47;63.99;100982.94;7392015;19;1420;-37
2024/01/20 00:49:28;;;;;;;;;;;;;;;18.45;64.00;100979.53;7393090;19;1427;-37
2024/01/20 00:51:59;;;;;;;;;;;;;;;18.18;64.70;100988.00;7391808;19;1182;-37
2024/01/20 00:54:28;;;;;;;;;;;;;;;17.96;65.20;100978.16;7393487;19;959;-37
2024/01/20 00:56:56;;;;;;;;;;;;;;;17.85;65.35;100979.03;7390398;19;1845;-37
2024/01/20 00:59:24;;;;;;;;;;;;;;;17.74;65.71;100977.19;7391687;19;1836;-37
2024/01/20 01:01:53;;;;;;;;;;;;;;;17.60;66.03;100972.06;7390499;19;1578;-37
2024/01/20 01:04:21;;;;;;;;;;;;;;;17.48;66.18;100996.13;7391458;19;1742;-37
2024/01/20 01:06:49;;;;;;;;;;;;;;;17.49;66.29;100987.16;7390923;19;1788;-37
2024/01/20 01:09:20;;;;;;;;;;;;;;;17.44;66.34;100992.00;7392183;19;1575;-37
2024/01/20 01:11:48;;;;;;;;;;;;;;;17.30;66.61;101005.59;7390600;19;1646;-37
2024/01/20 01:14:17;;;;;;;;;;;;;;;17.44;66.43;101020.56;7390076;19;1154;-37
2024/01/20 01:16:46;;;;;;;;;;;;;;;17.67;66.07;101016.94;7389639;19;1845;-37
2024/01/20 01:19:15;;;;;;;;;;;;;;;17.99;65.05;101023.44;7391537;19;1144;-37
2024/01/20 01:21:43;;;;;;;;;;;;;;;17.88;65.38;101006.38;7391453;19;1895;-37
2024/01/20 01:24:12;;;;;;;;;;;;;;;17.77;65.31;101014.41;7390587;19;1853;-37
2024/01/20 01:26:43;;;;;;;;;;;;;;;17.65;65.47;101029.59;7390123;19;1543;-37
2024/01/20 01:29:11;;;;;;;;;;;;;;;17.54;65.81;101060.81;7391193;19;1730;-37
2024/01/20 01:31:40;;;;;;;;;;;;;;;17.50;65.98;101065.53;7390348;19;1835;-37
2024/01/20 01:34:08;;;;;;;;;;;;;;;17.43;66.12;101053.63;7390215;19;1249;-37
2024/01/20 01:36:36;;;;;;;;;;;;;;;17.39;66.22;101078.84;7389732;19;1842;-37
2024/01/20 01:39:04;;;;;;;;;;;;;;;17.32;66.44;101075.81;7375921;19;1524;-37
2024/01/20 01:41:33;;;;;;;;;;;;;;;17.45;66.24;101073.91;7387260;19;1522;-37
2024/01/20 01:44:04;;;;;;;;;;;;;;;17.72;65.63;101072.75;7390713;19;1409;-37
2024/01/20 01:46:34;;;;;;;;;;;;;;;18.00;64.76;101062.56;7391809;19;1019;-38
2024/01/20 01:49:02;;;;;;;;;;;;;;;17.89;64.93;101045.56;7391010;19;1039;-37
2024/01/20 01:51:31;;;;;;;;;;;;;;;17.68;65.16;101047.19;7390196;19;1790;-37
2024/01/20 01:54:01;;;;;;;;;;;;;;;17.66;65.48;101054.50;7389542;19;1750;-37
2024/01/20 01:56:29;;;;;;;;;;;;;;;17.46;65.90;101067.59;7388060;19;1908;-37
2024/01/20 01:58:58;;;;;;;;;;;;;;;17.33;65.85;101082.00;7390170;19;1711;-37
2024/01/20 02:01:29;;;;;;;;;;;;;;;17.36;65.85;101074.59;7389367;19;1761;-38
2024/01/20 02:03:59;;;;;;;;;;;;;;;17.20;66.33;101111.50;7386785;19;1555;-39
2024/01/20 02:06:28;;;;;;;;;;;;;;;17.30;66.47;101141.91;7389093;19;1222;-39
2024/01/20 02:08:56;;;;;;;;;;;;;;;17.55;65.60;101126.66;7388638;19;1621;-38
2024/01/20 02:11:25;;;;;;;;;;;;;;;17.87;65.11;101105.50;7389887;19;1544;-38
2024/01/20 02:13:54;;;;;;;;;;;;;;;17.85;64.90;101110.97;7391288;19;1380;-38
2024/01/20 02:16:22;;;;;;;;;;;;;;;17.76;64.84;101105.44;7397018;19;1853;-39
2024/01/20 02:18:53;;;;;;;;;;;;;;;17.62;65.21;101106.53;7396995;19;1919;-39
2024/01/20 02:21:21;;;;;;;;;;;;;;;17.56;65.34;101107.00;7396026;19;1841;-37
2024/01/20 02:23:52;;;;;;;;;;;;;;;17.37;65.66;101124.44;7392023;19;2062;-37
2024/01/20 02:26:20;;;;;;;;;;;;;;;17.32;65.79;101121.25;7397058;19;1479;-37
2024/01/20 02:28:49;;;;;;;;;;;;;;;17.25;65.95;101136.06;7396400;19;1443;-37
2024/01/20 02:31:17;;;;;;;;;;;;;;;17.34;65.88;101113.97;7396195;19;1552;-37
2024/01/20 02:33:45;;;;;;;;;;;;;;;17.57;65.51;101147.00;7396247;19;1526;-37
2024/01/20 02:36:14;;;;;;;;;;;;;;;17.82;64.83;101142.44;7395645;19;1856;-37
2024/01/20 02:38:44;;;;;;;;;;;;;;;18.02;64.34;101148.94;7381407;19;1395;-37
2024/01/20 02:41:15;;;;;;;;;;;;;;;17.79;64.77;101161.41;7395967;19;1439;-37
2024/01/20 02:43:43;;;;;;;;;;;;;;;17.59;65.17;101193.19;7396455;19;1296;-37
2024/01/20 02:46:12;;;;;;;;;;;;;;;17.41;65.50;101192.75;7395728;19;1852;-37
2024/01/20 02:48:40;;;;;;;;;;;;;;;17.29;65.71;101207.03;7396555;19;1413;-38
2024/01/20 02:51:09;;;;;;;;;;;;;;;17.29;65.63;101212.38;7395649;19;1476;-37
2024/01/20 02:53:37;;;;;;;;;;;;;;;17.27;65.67;101206.31;7395795;19;1686;-37
2024/01/20 02:56:05;;;;;;;;;;;;;;;17.32;65.22;101216.63;7394487;19;1848;-37
2024/01/20 02:58:36;;;;;;;;;;;;;;;17.58;64.88;101223.56;7395311;19;1552;-37
2024/01/20 03:01:05;;;;;;;;;;;;;;;17.69;64.46;101220.94;7394588;19;1585;-37
2024/01/20 03:03:33;;;;;;;;;;;;;;;17.90;63.86;101225.66;7394575;19;1523;-37
2024/01/20 03:06:02;;;;;;;;;;;;;;;18.00;63.66;101196.38;7394523;19;1396;-37
2024/01/20 03:08:30;;;;;;;;;;;;;;;17.99;63.40;101213.41;7395310;19;1205;-37
2024/01/20 03:10:59;;;;;;;;;;;;;;;17.97;63.55;101244.78;7395657;19;1440;-37
2024/01/20 03:13:27;;;;;;;;;;;;;;;18.00;63.49;101244.53;7395562;19;1840;-37
2024/01/20 03:15:58;;;;;;;;;;;;;;;17.99;63.42;101240.19;7394717;19;1877;-37
2024/01/20 03:18:26;;;;;;;;;;;;;;;18.00;63.31;101210.59;7395758;19;1777;-37
2024/01/20 03:20:55;;;;;;;;;;;;;;;18.00;63.33;101223.13;7395177;19;1389;-37
2024/01/20 03:23:23;;;;;;;;;;;;;;;18.02;63.26;101226.53;7395197;19;1717;-37
2024/01/20 03:25:51;;;;;;;;;;;;;;;18.07;63.07;101248.47;7392600;19;1777;-37
2024/01/20 03:28:20;;;;;;;;;;;;;;;18.08;63.00;101252.84;7393997;19;1491;-37
2024/01/20 03:30:48;;;;;;;;;;;;;;;18.12;62.85;101254.28;7394999;19;1640;-37
2024/01/20 03:33:19;;;;;;;;;;;;;;;18.12;62.73;101264.16;7395350;19;1937;-37
2024/01/20 03:35:47;;;;;;;;;;;;;;;18.14;63.05;101272.91;7393467;19;1638;-37
2024/01/20 03:38:15;;;;;;;;;;;;;;;18.13;62.98;101308.72;7376704;19;1863;-37
2024/01/20 03:40:44;;;;;;;;;;;;;;;18.13;62.77;101263.19;7394069;19;1275;-38
2024/01/20 03:43:12;;;;;;;;;;;;;;;18.04;63.01;101270.09;7394583;19;1249;-37
2024/01/20 03:45:41;;;;;;;;;;;;;;;18.06;63.04;101277.06;7393269;19;1246;-37
2024/01/20 03:48:10;;;;;;;;;;;;;;;18.06;62.95;101262.81;7393958;19;1590;-37
2024/01/20 03:50:41;;;;;;;;;;;;;;;18.10;62.94;101283.00;7392760;19;1488;-38
2024/01/20 03:53:10;;;;;;;;;;;;;;;18.07;62.81;101277.91;7393162;19;1241;-37
2024/01/20 03:55:38;;;;;;;;;;;;;;;18.00;62.97;101271.31;7392328;19;1452;-37
2024/01/20 03:58:07;;;;;;;;;;;;;;;18.02;63.04;101272.88;7389833;19;1838;-37
2024/01/20 04:00:35;;;;;;;;;;;;;;;18.19;62.43;101282.31;7393299;19;1427;-37
2024/01/20 04:03:04;;;;;;;;;;;;;;;18.43;61.82;101300.97;7391614;19;2543;-37
2024/01/20 04:05:32;;;;;;;;;;;;;;;18.52;61.60;101299.41;7391763;19;1944;-37
2024/01/20 04:08:03;;;;;;;;;;;;;;;18.69;60.90;101306.97;7393538;19;1622;-37
2024/01/20 04:10:31;;;;;;;;;;;;;;;18.42;60.91;101261.81;7394768;19;1134;-37
2024/01/20 04:13:00;;;;;;;;;;;;;;;18.55;61.19;101315.25;7392197;19;1876;-37
2024/01/20 04:15:28;;;;;;;;;;;;;;;18.46;61.68;101315.94;7392597;19;1341;-37
2024/01/20 04:17:57;;;;;;;;;;;;;;;18.35;61.80;101334.69;7391778;19;1865;-37
2024/01/20 04:20:25;;;;;;;;;;;;;;;18.32;61.88;101318.84;7390119;19;2289;-37
2024/01/20 04:22:53;;;;;;;;;;;;;;;18.32;62.09;101318.84;7391892;19;1431;-37
2024/01/20 04:25:24;;;;;;;;;;;;;;;18.34;61.94;101327.63;7392752;19;1322;-37
2024/01/20 04:27:53;;;;;;;;;;;;;;;18.36;62.08;101331.88;7392538;19;1619;-38
2024/01/20 04:30:21;;;;;;;;;;;;;;;18.34;62.00;101343.69;7392647;19;1750;-37
2024/01/20 04:32:49;;;;;;;;;;;;;;;18.29;62.10;101352.91;7393898;19;1218;-37
2024/01/20 04:35:18;;;;;;;;;;;;;;;18.33;62.04;101358.91;7391318;19;1742;-37
2024/01/20 04:37:46;;;;;;;;;;;;;;;18.36;62.00;101363.16;7373455;19;1861;-37
2024/01/20 04:40:14;;;;;;;;;;;;;;;18.40;61.82;101367.31;7393317;19;1829;-37
2024/01/20 04:42:45;;;;;;;;;;;;;;;18.36;61.78;101355.13;7390588;19;1599;-37
2024/01/20 04:45:14;;;;;;;;;;;;;;;18.42;61.84;101368.03;7391820;19;1543;-37
2024/01/20 04:47:43;;;;;;;;;;;;;;;18.40;61.66;101368.19;7390750;19;1529;-37
2024/01/20 04:50:11;;;;;;;;;;;;;;;18.41;61.59;101372.56;7391530;19;1283;-38
2024/01/20 04:52:39;;;;;;;;;;;;;;;18.47;61.59;101379.28;7391979;19;1464;-37
2024/01/20 04:55:08;;;;;;;;;;;;;;;18.48;61.39;101364.88;7392198;19;1389;-37
2024/01/20 04:57:36;;;;;;;;;;;;;;;18.21;61.90;101376.75;7390399;19;1851;-37
2024/01/20 05:00:08;;;;;;;;;;;;;;;17.96;62.73;101395.59;7391403;19;1254;-37
2024/01/20 05:02:37;;;;;;;;;;;;;;;17.86;62.91;101390.06;7391737;19;1490;-37
2024/01/20 05:05:06;;;;;;;;;;;;;;;17.57;63.28;101408.22;7392414;19;1040;-37
2024/01/20 05:07:34;;;;;;;;;;;;;;;17.77;62.97;101415.66;7391940;19;1774;-37
2024/01/20 05:10:03;;;;;;;;;;;;;;;18.08;62.23;101419.66;7391766;19;1547;-37
2024/01/20 05:12:31;;;;;;;;;;;;;;;18.35;61.49;101423.06;7389828;19;1487;-37
2024/01/20 05:15:00;;;;;;;;;;;;;;;18.34;61.66;101427.53;7390687;19;1832;-37
2024/01/20 05:17:31;;;;;;;;;;;;;;;18.24;61.93;101435.41;7390674;19;1858;-37
2024/01/20 05:19:59;;;;;;;;;;;;;;;18.25;62.23;101447.81;7391423;19;1737;-37
2024/01/20 05:22:27;;;;;;;;;;;;;;;18.39;61.75;101428.06;7390111;19;1503;-37
2024/01/20 05:24:55;;;;;;;;;;;;;;;18.40;61.54;101448.53;7390357;19;1361;-37
2024/01/20 05:27:24;;;;;;;;;;;;;;;18.33;61.68;101457.97;7390406;19;1284;-38
2024/01/20 05:29:52;;;;;;;;;;;;;;;18.28;61.70;101461.00;7390936;19;1205;-37
2024/01/20 05:32:20;;;;;;;;;;;;;;;18.51;61.01;101461.09;7390570;19;1564;-37
2024/01/20 05:34:51;;;;;;;;;;;;;;;18.68;60.60;101455.31;7389419;19;1532;-37
2024/01/20 05:37:19;;;;;;;;;;;;;;;18.75;60.44;101469.09;7390130;19;1832;-37
2024/01/20 05:39:48;;;;;;;;;;;;;;;18.72;60.55;101476.50;7376386;19;1312;-37
2024/01/20 05:42:17;;;;;;;;;;;;;;;18.54;60.97;101468.88;7389439;19;1231;-37
2024/01/20 05:44:45;;;;;;;;;;;;;;;18.42;61.29;101483.19;7388073;19;1456;-37
2024/01/20 05:47:13;;;;;;;;;;;;;;;18.39;61.31;101478.94;7389331;19;1484;-37
2024/01/20 05:49:41;;;;;;;;;;;;;;;18.41;61.42;101494.88;7389316;19;1403;-38
2024/01/20 05:52:13;;;;;;;;;;;;;;;18.41;61.34;101494.88;7390401;19;1520;-37
2024/01/20 05:54:41;;;;;;;;;;;;;;;18.45;61.37;101486.50;7389353;19;1166;-38
2024/01/20 05:57:10;;;;;;;;;;;;;;;18.43;61.36;101504.50;7389999;19;1863;-38
2024/01/20 05:59:38;;;;;;;;;;;;;;;18.40;61.36;101485.13;7389717;19;1841;-37
2024/01/20 06:02:07;;;;;;;;;;;;;;;18.46;61.13;101496.25;7389551;19;1213;-37
2024/01/20 06:04:35;;;;;;;;;;;;;;;18.51;61.20;101500.41;7386496;19;1837;-37
2024/01/20 06:07:04;;;;;;;;;;;;;;;18.48;61.10;101496.13;7387931;19;1472;-37
2024/01/20 06:09:35;;;;;;;;;;;;;;;18.55;60.97;101502.75;7389817;19;1512;-38
2024/01/20 06:12:03;;;;;;;;;;;;;;;18.55;60.75;101488.50;7384246;19;1326;-37
2024/01/20 06:14:31;;;;;;;;;;;;;;;18.56;60.80;101495.56;7387850;19;1293;-37
2024/01/20 06:16:59;;;;;;;;;;;;;;;18.48;61.16;101509.50;7387706;19;1867;-37
2024/01/20 06:19:28;;;;;;;;;;;;;;;18.66;60.58;101510.84;7389368;19;1535;-37
2024/01/20 06:21:56;;;;;;;;;;;;;;;18.61;60.84;101518.34;7390162;19;1090;-37
2024/01/20 06:24:24;;;;;;;;;;;;;;;18.51;60.96;101517.34;7389325;19;1841;-37
2024/01/20 06:26:55;;;;;;;;;;;;;;;18.54;60.76;101526.97;7387817;19;1971;-37
2024/01/20 06:29:24;;;;;;;;;;;;;;;18.48;60.84;101538.97;7388107;19;1925;-37
2024/01/20 06:31:52;;;;;;;;;;;;;;;18.50;60.75;101520.97;7389370;19;1518;-37
2024/01/20 06:34:21;;;;;;;;;;;;;;;18.55;60.53;101553.63;7388490;19;1754;-38
2024/01/20 06:36:49;;;;;;;;;;;;;;;18.48;60.96;101555.03;7383526;19;1927;-40
2024/01/20 06:39:17;;;;;;;;;;;;;;;18.44;60.82;101554.44;7370888;19;1837;-39
2024/01/20 06:41:46;;;;;;;;;;;;;;;18.53;60.72;101555.56;7386858;19;1586;-39
2024/01/20 06:44:17;;;;;;;;;;;;;;;18.55;60.68;101568.84;7387063;19;1524;-40
2024/01/20 06:46:45;;;;;;;;;;;;;;;18.58;60.86;101560.56;7386620;19;1334;-39
2024/01/20 06:49:13;;;;;;;;;;;;;;;18.68;60.86;101586.59;7386050;19;1213;-37
2024/01/20 06:51:45;;;;;;;;;;;;;;;18.78;60.13;101593.94;7383008;19;1630;-38
2024/01/20 06:54:13;;;;;;;;;;;;;;;18.79;59.89;101595.66;7385853;19;1829;-37
2024/01/20 06:56:42;;;;;;;;;;;;;;;18.82;59.84;101590.97;7385133;19;1727;-37
2024/01/20 06:59:10;;;;;;;;;;;;;;;18.85;59.35;101604.13;7386522;19;1842;-37
2024/01/20 07:01:41;;;;;;;;;;;;;;;18.88;59.52;101611.94;7392351;19;1397;-37
2024/01/20 07:04:09;;;;;;;;;;;;;;;18.96;59.01;101597.09;7393480;19;1937;-37
2024/01/20 07:06:38;;;;;;;;;;;;;;;18.48;59.98;101608.59;7392804;19;1342;-37
2024/01/20 07:09:07;;;;;;;;;;;;;;;18.16;61.22;101619.81;7392889;19;1475;-37
2024/01/20 07:11:35;;;;;;;;;;;;;;;18.00;61.42;101635.25;7391358;19;1230;-39
2024/01/20 07:14:03;;;;;;;;;;;;;;;17.82;61.82;101638.22;7393731;19;1201;-37
2024/01/20 07:16:32;;;;;;;;;;;;;;;17.83;61.64;101641.75;7392760;19;1271;-37
2024/01/20 07:19:03;;;;;;;;;;;;;;;17.78;62.15;101651.91;7392653;19;2172;-37
2024/01/20 07:21:31;;;;;;;;;;;;;;;17.72;61.96;101663.03;7394998;19;1410;-37
2024/01/20 07:23:59;;;;;;;;;;;;;;;17.60;61.97;101664.72;7393404;19;1858;-37
2024/01/20 07:26:28;;;;;;;;;;;;;;;17.52;62.19;101661.72;7393585;19;1361;-37
2024/01/20 07:28:56;;;;;;;;;;;;;;;17.44;61.72;101656.88;7394365;19;1443;-37
2024/01/20 07:31:25;;;;;;;;;;;;;;;17.44;62.05;101660.41;7394409;19;1559;-37
2024/01/20 07:33:53;;;;;;;;;;;;;;;17.45;62.10;101656.78;7394977;19;1539;-37
2024/01/20 07:36:24;;;;;;;;;;;;;;;17.55;62.19;101667.72;7394761;19;1600;-37
2024/01/20 07:38:52;;;;;;;;;;;;;;;18.15;60.62;101693.06;7376398;19;2304;-37
2024/01/20 07:41:20;;;;;;;;;;;;;;;18.46;59.77;101682.84;7391385;19;1453;-37
2024/01/20 07:43:49;;;;;;;;;;;;;;;18.60;58.40;101680.06;7392714;19;1198;-37
2024/01/20 07:46:17;;;;;;;;;;;;;;;18.54;59.07;101703.75;7393247;19;1556;-37
2024/01/20 07:48:46;;;;;;;;;;;;;;;18.08;59.41;101697.13;7391905;19;1682;-37
2024/01/20 07:51:14;;;;;;;;;;;;;;;17.88;60.24;101693.16;7390685;19;1472;-37
2024/01/20 07:53:47;;;;;;;;;;;;;;;17.72;60.78;101696.00;7393425;19;1429;-37
2024/01/20 07:56:16;;;;;;;;;;;;;;;17.56;61.02;101695.31;7390938;19;1579;-37
2024/01/20 07:58:44;;;;;;;;;;;;;;;17.52;60.89;101705.38;7389188;19;1839;-37
2024/01/20 08:01:12;;;;;;;;;;;;;;;17.55;60.85;101713.19;7391726;19;1599;-37
2024/01/20 08:03:41;;;;;;;;;;;;;;;17.53;60.86;101716.91;7388736;19;1727;-37
2024/01/20 08:06:09;;;;;;;;;;;;;;;17.30;61.34;101721.97;7389629;19;1567;-37
2024/01/20 08:08:38;;;;;;;;;;;;;;;17.38;61.44;101716.97;7389496;19;1727;-37
2024/01/20 08:11:09;;;;;;;;;;;;;;;17.87;60.27;101724.41;7388493;19;1051;-37
2024/01/20 08:13:37;;;;;;;;;;;;;;;18.21;59.33;101730.13;7389223;19;1500;-37
2024/01/20 08:16:06;;;;;;;;;;;;;;;17.91;59.86;101734.94;7389981;19;1919;-37
2024/01/20 08:18:34;;;;;;;;;;;;;;;17.59;60.53;101753.97;7391812;19;1890;-37
2024/01/20 08:21:06;;;;;;;;;;;;;;;17.48;61.02;101752.00;7393761;19;1694;-37
2024/01/20 08:23:35;;;;;;;;;;;;;;;17.38;61.14;101751.75;7393420;19;1479;-37
2024/01/20 08:26:04;;;;;;;;;;;;;;;17.40;61.14;101765.88;7393312;19;1055;-38
2024/01/20 08:28:35;;;;;;;;;;;;;;;17.18;61.34;101770.91;7393226;19;1833;-37
2024/01/20 08:31:03;;;;;;;;;;;;;;;17.36;61.12;101801.78;7393902;19;1619;-37
2024/01/20 08:33:32;;;;;;;;;;;;;;;17.90;60.10;101779.53;7393532;19;1715;-37
2024/01/20 08:36:00;;;;;;;;;;;;;;;17.76;60.18;101767.06;7393945;19;1015;-37
2024/01/20 08:38:29;;;;;;;;;;;;;;;17.49;60.63;101775.97;7389515;19;1916;-37
2024/01/20 08:40:57;;;;;;;;;;;;;;;17.40;61.02;101783.72;7384396;19;1881;-40
2024/01/20 08:43:25;;;;;;;;;;;;;;;17.40;61.08;101781.91;7392438;19;1389;-37
2024/01/20 08:45:56;;;;;;;;;;;;;;;17.28;60.73;101782.72;7390689;19;1158;-36
2024/01/20 08:48:25;;;;;;;;;;;;;;;17.21;61.23;101787.59;7392583;19;1849;-37
2024/01/20 08:50:53;;;;;;;;;;;;;;;17.68;60.34;101793.47;7392082;19;1922;-37
2024/01/20 08:53:22;;;;;;;;;;;;;;;17.83;59.88;101799.63;7392507;19;1512;-37
2024/01/20 08:55:50;;;;;;;;;;;;;;;17.65;59.81;101804.38;7392559;19;1780;-37
2024/01/20 08:58:18;;;;;;;;;;;;;;;17.48;60.58;101809.00;7392037;19;1848;-39
2024/01/20 09:00:47;;;;;;;;;;;;;;;17.36;60.72;101807.13;7389442;19;2427;-38
2024/01/20 09:03:18;;;;;;;;;;;;;;;17.33;60.85;101811.81;7392130;19;1532;-37
2024/01/20 09:05:46;;;;;;;;;;;;;;;17.10;60.99;101812.31;7391641;19;1773;-37
2024/01/20 09:08:14;;;;;;;;;;;;;;;17.33;60.88;101812.69;7391763;19;1496;-37
2024/01/20 09:10:43;;;;;;;;;;;;;;;17.82;59.93;101813.94;7392656;19;962;-37
2024/01/20 09:13:11;;;;;;;;;;;;;;;17.84;59.59;101828.97;7390918;19;1590;-37
2024/01/20 09:15:39;;;;;;;;;;;;;;;17.56;60.13;101837.06;7392433;19;1729;-37
2024/01/20 09:18:08;;;;;;;;;;;;;;;17.45;60.46;101819.06;7390704;19;1838;-37
2024/01/20 09:20:39;;;;;;;;;;;;;;;17.27;60.67;101813.09;7388875;19;1495;-37
2024/01/20 09:23:07;;;;;;;;;;;;;;;17.23;60.79;101836.47;7390013;19;1564;-37
2024/01/20 09:25:35;;;;;;;;;;;;;;;17.19;61.03;101867.03;7389993;19;1745;-38
2024/01/20 09:28:05;;;;;;;;;;;;;;;17.62;60.06;101825.97;7391016;19;1610;-37
2024/01/20 09:30:35;;;;;;;;;;;;;;;17.94;59.14;101855.97;7391606;19;1706;-37
2024/01/20 09:33:04;;;;;;;;;;;;;;;17.65;59.65;101829.31;7391651;19;1223;-37
2024/01/20 09:35:32;;;;;;;;;;;;;;;17.48;60.11;101837.56;7391739;19;1404;-37
2024/01/20 09:38:05;;;;;;;;;;;;;;;17.38;60.37;101839.97;7392321;19;1098;-37
2024/01/20 09:40:35;;;;;;;;;;;;;;;17.35;60.18;101832.16;7377760;19;1795;-37
2024/01/20 09:43:04;;;;;;;;;;;;;;;17.10;60.71;101841.72;7390233;19;1841;-39
2024/01/20 09:45:38;;;;;;;;;;;;;;;17.40;60.43;101834.53;7391437;19;1733;-37
2024/01/20 09:48:07;;;;;;;;;;;;;;;17.85;59.42;101841.41;7390877;19;1743;-38
2024/01/20 09:50:35;;;;;;;;;;;;;;;17.55;59.43;101840.69;7389891;19;1478;-37
2024/01/20 09:53:12;;;;;;;;;;;;;;;17.35;60.13;101837.50;7391926;19;1894;-39
2024/01/20 09:55:41;;;;;;;;;;;;;;;17.34;60.15;101835.78;7391221;19;1440;-39
2024/01/20 09:58:11;;;;;;;;;;;;;;;17.16;60.30;101835.13;7390837;19;1300;-38
2024/01/20 10:00:39;;;;;;;;;;;;;;;17.23;60.58;101838.28;7389787;19;1455;-37
2024/01/20 10:03:08;;;;;;;;;;;;;;;17.27;60.46;101845.16;7389866;19;1564;-37
2024/01/20 10:05:36;;;;;;;;;;;;;;;17.22;60.27;101836.56;7389513;19;1324;-37
2024/01/20 10:08:08;;;;;;;;;;;;;;;17.12;60.20;101855.00;7391456;19;1026;-37
2024/01/20 10:10:37;;;;;;;;;;;;;;;16.96;61.07;101860.44;7390270;19;1551;-38
2024/01/20 10:13:05;;;;;;;;;;;;;;;17.17;60.65;101852.91;7389526;19;1928;-38
2024/01/20 10:15:34;;;;;;;;;;;;;;;17.46;60.17;101850.19;7389640;19;1553;-38
2024/01/20 10:18:02;;;;;;;;;;;;;;;17.83;58.95;101855.81;7387495;19;1741;-38
2024/01/20 10:20:35;;;;;;;;;;;;;;;17.60;59.30;101846.59;7387379;19;1853;-37
2024/01/20 10:23:05;;;;;;;;;;;;;;;17.16;59.83;101804.88;7389186;19;1408;-41
2024/01/20 10:25:36;;;;;;;;;;;;;;;17.29;60.20;101859.28;7389776;19;1141;-37
2024/01/20 10:28:04;;;;;;;;;;;;;;;17.12;60.60;101864.84;7388257;19;1845;-37
2024/01/20 10:30:32;;;;;;;;;;;;;;;17.15;60.56;101868.19;7387986;19;1219;-38
2024/01/20 10:33:02;;;;;;;;;;;;;;;17.70;59.37;101871.78;7388486;19;1440;-37
2024/01/20 10:35:30;;;;;;;;;;;;;;;17.87;58.92;101865.38;7391692;19;1547;-38
2024/01/20 10:38:02;;;;;;;;;;;;;;;17.57;58.94;101866.41;7395538;19;1750;-37
2024/01/20 10:40:30;;;;;;;;;;;;;;;17.44;59.75;101871.66;7380857;19;1853;-37
2024/01/20 10:43:02;;;;;;;;;;;;;;;17.30;60.18;101877.88;7395651;19;1824;-37
2024/01/20 10:45:35;;;;;;;;;;;;;;;17.20;60.26;101875.91;7396167;19;1404;-37
2024/01/20 10:48:14;;;;;;;;;;;;;;;17.18;60.46;101877.81;7396105;19;1742;-37
2024/01/20 10:50:44;;;;;;;;;;;;;;;17.66;59.21;101871.13;7394898;19;1635;-37
2024/01/20 10:53:12;;;;;;;;;;;;;;;17.84;58.60;101884.31;7395003;19;1741;-37
2024/01/20 10:55:42;;;;;;;;;;;;;;;17.56;58.98;101877.19;7395173;19;1655;-37
2024/01/20 10:58:13;;;;;;;;;;;;;;;17.38;59.83;101880.06;7391893;19;2536;-37
2024/01/20 11:00:42;;;;;;;;;;;;;;;17.30;59.92;101885.91;7393594;19;1842;-37
2024/01/20 11:03:11;;;;;;;;;;;;;;;17.07;60.34;101898.06;7396242;19;1749;-37
2024/01/20 11:05:39;;;;;;;;;;;;;;;17.23;60.21;101889.06;7394875;19;1568;-37
2024/01/20 11:08:08;;;;;;;;;;;;;;;17.75;59.04;101898.28;7396784;19;1413;-37
2024/01/20 11:10:41;;;;;;;;;;;;;;;17.69;58.92;101891.50;7395883;19;1121;-37
2024/01/20 11:13:10;;;;;;;;;;;;;;;17.43;59.02;101890.50;7395687;19;1912;-39
2024/01/20 11:15:41;;;;;;;;;;;;;;;17.28;59.91;101884.28;7395450;19;1535;-37
2024/01/20 11:18:20;;;;;;;;;;;;;;;17.23;59.81;101908.66;7394845;19;1737;-37
2024/01/20 11:21:01;;;;;;;;;;;;;;;17.13;60.06;101879.91;7392714;19;1891;-37
2024/01/20 11:23:29;;;;;;;;;;;;;;;17.41;59.46;101901.28;7395330;19;1380;-37
2024/01/20 11:25:59;;;;;;;;;;;;;;;17.83;58.58;101895.94;7394917;19;1750;-39
2024/01/20 11:28:29;;;;;;;;;;;;;;;17.63;58.51;101897.25;7395153;19;1035;-38
2024/01/20 11:31:00;;;;;;;;;;;;;;;17.38;59.26;101898.78;7391686;19;2122;-38
2024/01/20 11:33:28;;;;;;;;;;;;;;;17.27;59.63;101914.69;7392267;19;1722;-37
2024/01/20 11:35:57;;;;;;;;;;;;;;;17.16;59.87;101907.31;7394568;19;1655;-37
2024/01/20 11:38:25;;;;;;;;;;;;;;;17.05;60.33;101918.69;7394122;19;1679;-37
2024/01/20 11:41:00;;;;;;;;;;;;;;;17.57;59.00;101919.03;7377545;19;1848;-37
2024/01/20 11:43:28;;;;;;;;;;;;;;;17.74;58.78;101913.44;7394709;19;1572;-37
2024/01/20 11:45:57;;;;;;;;;;;;;;;17.50;58.69;101911.38;7394175;19;1840;-37
2024/01/20 11:48:28;;;;;;;;;;;;;;;17.33;59.52;101916.97;7393766;19;1751;-37
2024/01/20 11:50:57;;;;;;;;;;;;;;;17.23;59.83;101919.34;7394384;19;1479;-38
2024/01/20 11:53:28;;;;;;;;;;;;;;;17.05;60.20;101907.09;7394706;19;1687;-37
2024/01/20 11:55:58;;;;;;;;;;;;;;;17.13;60.18;101920.00;7393287;19;1718;-37
2024/01/20 11:58:27;;;;;;;;;;;;;;;17.70;58.76;101917.28;7393977;19;1547;-37
2024/01/20 12:00:56;;;;;;;;;;;;;;;17.67;58.69;101917.50;7390237;19;1841;-37
2024/01/20 12:03:24;;;;;;;;;;;;;;;17.39;58.95;101927.28;7394663;19;1537;-39
2024/01/20 12:05:55;;;;;;;;;;;;;;;17.33;59.43;101924.97;7392347;19;1349;-39
2024/01/20 12:08:24;;;;;;;;;;;;;;;17.26;59.57;101927.16;7393089;19;1559;-38
2024/01/20 12:10:52;;;;;;;;;;;;;;;17.06;59.53;101917.72;7395355;19;1024;-37
2024/01/20 12:13:21;;;;;;;;;;;;;;;17.32;59.45;101928.59;7392680;19;1773;-37
2024/01/20 12:15:49;;;;;;;;;;;;;;;17.70;58.53;101931.50;7392675;19;1811;-38
2024/01/20 12:18:19;;;;;;;;;;;;;;;17.44;58.92;101938.50;7393201;19;1698;-37
2024/01/20 12:20:47;;;;;;;;;;;;;;;17.21;59.52;101931.06;7391323;19;1863;-38
2024/01/20 12:23:22;;;;;;;;;;;;;;;17.20;59.85;101921.34;7393026;19;1822;-38
2024/01/20 12:25:53;;;;;;;;;;;;;;;17.04;60.07;101932.13;7391671;19;1495;-37
2024/01/20 12:28:21;;;;;;;;;;;;;;;17.34;59.48;101931.19;7392443;19;1126;-38
2024/01/20 12:30:50;;;;;;;;;;;;;;;17.79;58.23;101938.09;7392035;19;1871;-38
2024/01/20 12:33:18;;;;;;;;;;;;;;;17.66;58.33;101931.81;7391863;19;1543;-37
2024/01/20 12:35:47;;;;;;;;;;;;;;;17.36;58.76;101930.13;7393254;19;1062;-37
2024/01/20 12:38:15;;;;;;;;;;;;;;;17.28;59.34;101924.41;7390585;19;1861;-37
2024/01/20 12:40:47;;;;;;;;;;;;;;;17.18;59.38;101931.28;7376075;19;1862;-37
2024/01/20 12:43:15;;;;;;;;;;;;;;;17.01;59.87;101926.94;7391729;19;1687;-38
2024/01/20 12:45:43;;;;;;;;;;;;;;;17.44;59.05;101940.34;7391448;19;1501;-37
2024/01/20 12:48:12;;;;;;;;;;;;;;;17.78;58.14;101936.38;7390929;19;1762;-38
2024/01/20 12:50:40;;;;;;;;;;;;;;;17.49;58.65;101939.09;7390632;19;1453;-37
2024/01/20 12:53:08;;;;;;;;;;;;;;;17.27;59.08;101946.75;7390488;19;1659;-37
2024/01/20 12:55:37;;;;;;;;;;;;;;;16.96;59.38;101900.53;7392071;19;1568;-38
2024/01/20 12:58:08;;;;;;;;;;;;;;;17.00;59.67;101943.97;7390568;19;1642;-38